Time;durP1;ratioP1;P1;durP2;ratioP2;P2;SDS_P1;SDS_P2;PMS_P1;PMS_P2;Temp;Humidity;BMP_temperature;BMP_pressure;BME280_temperature;BME280_humidity;BME280_pressure;Samples;Min_cycle;Max_cycle;Signal;HPM_P1;HPM_P2
2023/03/14 00:00:18;;;;;;;1.33;1.20;;;;;;;10.60;100.00;97067.13;5104771;28;20207;-81
2023/03/14 00:02:46;;;;;;;1.77;1.23;;;;;;;10.56;100.00;97067.59;5050722;28;20212;-82
2023/03/14 00:05:14;;;;;;;1.63;1.17;;;;;;;10.56;100.00;97081.66;5041775;28;20204;-81
2023/03/14 00:07:48;;;;;;;3.00;1.23;;;;;;;10.65;100.00;97095.81;5048335;28;20197;-80
2023/03/14 00:10:18;;;;;;;2.33;1.47;;;;;;;10.63;100.00;97089.00;5045015;28;20659;-81
2023/03/14 00:12:47;;;;;;;5.07;1.30;;;;;;;10.65;100.00;97079.09;5044520;28;20201;-80
2023/03/14 00:15:17;;;;;;;3.07;1.50;;;;;;;10.66;100.00;97067.53;5044649;28;20263;-81
2023/03/14 00:17:48;;;;;;;2.87;1.20;;;;;;;10.71;100.00;97060.81;5045951;28;20251;-80
2023/03/14 00:20:16;;;;;;;1.77;1.40;;;;;;;10.67;100.00;97070.00;5040807;28;20197;-80
2023/03/14 00:22:49;;;;;;;3.90;1.33;;;;;;;10.68;100.00;97068.19;5047714;28;20193;-80
2023/03/14 00:25:17;;;;;;;3.63;1.53;;;;;;;10.72;100.00;97072.22;5045637;28;20193;-80
2023/03/14 00:27:46;;;;;;;2.47;1.47;;;;;;;10.73;100.00;97080.03;5020821;28;20197;-81
2023/03/14 00:30:15;;;;;;;1.57;1.30;;;;;;;10.79;100.00;97084.69;5050607;28;20193;-80
2023/03/14 00:32:44;;;;;;;3.30;1.53;;;;;;;10.69;100.00;97088.38;5045408;28;20205;-80
2023/03/14 00:35:12;;;;;;;3.10;1.57;;;;;;;10.63;100.00;97071.31;5042462;28;20185;-80
2023/03/14 00:37:42;;;;;;;3.63;1.40;;;;;;;10.73;100.00;97084.47;5048304;28;20204;-80
2023/03/14 00:40:14;;;;;;;4.17;1.50;;;;;;;10.70;100.00;97071.53;5051438;28;20273;-80
2023/03/14 00:42:45;;;;;;;2.67;1.70;;;;;;;10.72;100.00;97085.47;5048324;28;20204;-80
2023/03/14 00:45:13;;;;;;;1.77;1.57;;;;;;;10.79;100.00;97082.03;5059803;28;20201;-80
2023/03/14 00:47:45;;;;;;;3.37;1.53;;;;;;;10.78;100.00;97080.38;5113051;28;20197;-80
2023/03/14 00:50:14;;;;;;;2.87;1.60;;;;;;;10.83;100.00;97080.78;5105768;28;20232;-81
2023/03/14 00:52:43;;;;;;;4.27;1.57;;;;;;;10.76;100.00;97082.34;5113226;28;20196;-80
2023/03/14 00:55:13;;;;;;;2.60;1.67;;;;;;;10.62;100.00;97080.25;5108561;28;20294;-81
2023/03/14 00:57:41;;;;;;;2.53;1.60;;;;;;;10.57;100.00;97067.44;5103207;28;20199;-80
2023/03/14 01:00:12;;;;;;;4.33;1.47;;;;;;;10.58;100.00;97074.38;5108383;28;20629;-80
2023/03/14 01:02:41;;;;;;;3.37;1.93;;;;;;;10.66;100.00;97064.88;5107964;28;20291;-80
2023/03/14 01:05:11;;;;;;;2.73;1.40;;;;;;;10.67;100.00;97050.66;5107566;28;20199;-80
2023/03/14 01:07:39;;;;;;;4.10;1.93;;;;;;;10.57;100.00;97021.59;5042813;28;20193;-80
2023/03/14 01:10:10;;;;;;;4.93;2.53;;;;;;;10.55;100.00;97011.19;5045308;28;20205;-80
2023/03/14 01:12:40;;;;;;;3.70;1.50;;;;;;;10.56;100.00;96996.13;5047863;28;20196;-80
2023/03/14 01:15:10;;;;;;;3.73;1.67;;;;;;;10.48;100.00;96988.94;5043774;28;20192;-80
2023/03/14 01:17:39;;;;;;;2.83;1.63;;;;;;;10.51;100.00;97006.31;5047448;28;20263;-80
2023/03/14 01:20:11;;;;;;;3.53;1.70;;;;;;;10.46;100.00;97011.25;5044715;28;20229;-80
2023/03/14 01:22:40;;;;;;;3.17;1.67;;;;;;;10.43;100.00;97011.56;5045032;28;20220;-80
2023/03/14 01:25:12;;;;;;;4.00;1.83;;;;;;;10.34;100.00;97012.47;5063691;28;20248;-81
2023/03/14 01:27:42;;;;;;;4.57;1.73;;;;;;;10.37;100.00;97015.63;5115077;27;20198;-81
2023/03/14 01:30:12;;;;;;;3.60;1.80;;;;;;;10.36;100.00;97016.59;5112262;28;20186;-80
2023/03/14 01:32:41;;;;;;;2.43;1.67;;;;;;;10.36;100.00;97021.06;5109025;28;20330;-80
2023/03/14 01:35:10;;;;;;;4.27;2.07;;;;;;;10.36;100.00;97034.31;5110386;28;20183;-80
2023/03/14 01:37:39;;;;;;;5.67;2.23;;;;;;;10.32;100.00;97057.56;5067563;28;20204;-80
2023/03/14 01:40:11;;;;;;;3.23;1.50;;;;;;;10.38;100.00;97038.44;5068385;28;20235;-80
2023/03/14 01:42:56;;;;;;;3.83;1.77;;;;;;;10.41;100.00;97024.91;5091547;28;20222;-80
2023/03/14 01:46:03;;;;;;;4.23;1.60;;;;;;;10.44;100.00;97029.09;5071437;28;20193;-80
2023/03/14 01:48:36;;;;;;;4.40;1.87;;;;;;;10.41;100.00;97019.63;5070882;28;20651;-80
2023/03/14 01:51:08;;;;;;;4.83;1.60;;;;;;;10.41;100.00;97026.72;5064965;28;20227;-80
2023/03/14 01:53:40;;;;;;;5.03;1.70;;;;;;;10.30;100.00;97025.97;5069867;28;20238;-80
2023/03/14 01:56:11;;;;;;;4.60;2.07;;;;;;;10.30;100.00;97017.19;5069386;28;20735;-80
2023/03/14 01:58:45;;;;;;;7.33;2.23;;;;;;;10.27;100.00;97010.41;5090758;28;20261;-80
2023/03/14 02:01:17;;;;;;;7.07;2.17;;;;;;;10.21;100.00;97000.38;5091992;28;20195;-80
2023/03/14 02:03:49;;;;;;;6.07;2.23;;;;;;;10.22;100.00;97009.16;5086064;28;20191;-81
2023/03/14 02:06:22;;;;;;;6.03;2.10;;;;;;;10.21;100.00;96995.06;5088321;28;20196;-80
2023/03/14 02:08:51;;;;;;;5.40;2.20;;;;;;;10.19;100.00;97004.16;5090044;28;20196;-80
2023/03/14 02:11:20;;;;;;;4.00;2.23;;;;;;;10.17;100.00;96988.44;5023967;28;20205;-80
2023/03/14 02:13:58;;;;;;;3.10;1.70;;;;;;;10.22;100.00;96977.41;5033141;28;20212;-80
2023/03/14 02:16:26;;;;;;;5.20;1.90;;;;;;;10.21;100.00;96987.13;5030478;28;20201;-80
2023/03/14 02:18:55;;;;;;;4.67;1.93;;;;;;;10.25;100.00;96982.44;4973095;28;20215;-80
2023/03/14 02:21:32;;;;;;;2.97;1.50;;;;;;;10.27;100.00;96983.09;4985587;28;20237;-80
2023/03/14 02:24:14;;;;;;;4.17;1.97;;;;;;;10.22;100.00;96988.00;5013206;28;20198;-80
2023/03/14 02:26:46;;;;;;;3.53;1.77;;;;;;;10.21;100.00;96987.13;5006623;28;20692;-80
2023/03/14 02:29:16;;;;;;;3.00;1.63;;;;;;;10.20;100.00;96987.28;5012938;28;20241;-79
2023/03/14 02:31:45;;;;;;;8.63;1.80;;;;;;;10.15;100.00;96979.00;5013036;28;20199;-80
2023/03/14 02:34:14;;;;;;;5.57;1.67;;;;;;;10.27;100.00;96975.16;5010516;28;20378;-80
2023/03/14 02:36:43;;;;;;;6.60;2.03;;;;;;;10.28;100.00;96976.84;5075256;28;20194;-80
2023/03/14 02:39:17;;;;;;;3.53;1.60;;;;;;;10.16;100.00;96970.06;5115077;28;20214;-80
2023/03/14 02:41:49;;;;;;;4.70;1.70;;;;;;;10.21;100.00;96970.44;5116292;28;20610;-80
2023/03/14 02:44:18;;;;;;;5.70;1.90;;;;;;;10.18;100.00;96945.13;5114323;27;20207;-80
2023/03/14 02:46:47;;;;;;;5.37;1.90;;;;;;;10.11;100.00;96945.88;5115206;28;20256;-80
2023/03/14 02:49:17;;;;;;;7.10;1.80;;;;;;;10.15;100.00;96942.78;5112289;28;20187;-80
2023/03/14 02:51:47;;;;;;;6.90;2.00;;;;;;;10.19;100.00;96940.66;5114153;28;20195;-80
2023/03/14 02:54:16;;;;;;;3.00;1.47;;;;;;;10.21;100.00;96941.34;5114406;27;20199;-80
2023/03/14 02:56:45;;;;;;;3.03;1.30;;;;;;;10.16;100.00;96925.94;5052126;28;20223;-80
2023/03/14 02:59:13;;;;;;;4.83;1.73;;;;;;;10.25;100.00;96932.16;5048451;28;20217;-80
2023/03/14 03:01:45;;;;;;;5.10;1.50;;;;;;;10.19;100.00;96938.03;5044543;28;20201;-80
2023/03/14 03:04:14;;;;;;;4.63;1.80;;;;;;;10.23;100.00;96939.41;4972649;28;20207;-80
2023/03/14 03:06:45;;;;;;;5.33;1.57;;;;;;;10.26;100.00;96931.19;4969598;28;20200;-80
2023/03/14 03:09:15;;;;;;;5.17;2.10;;;;;;;10.34;100.00;96931.25;4973372;28;20378;-80
2023/03/14 03:11:43;;;;;;;6.63;1.83;;;;;;;10.35;100.00;96930.28;4968115;28;20214;-80
2023/03/14 03:14:11;;;;;;;7.07;1.77;;;;;;;10.34;100.00;96933.09;4987106;28;20267;-80
2023/03/14 03:16:39;;;;;;;6.80;1.90;;;;;;;10.31;100.00;96911.22;5049503;28;20251;-80
2023/03/14 03:19:10;;;;;;;5.03;1.60;;;;;;;10.32;100.00;96914.69;5047361;28;20204;-80
2023/03/14 03:21:38;;;;;;;5.57;1.60;;;;;;;10.34;100.00;96917.22;5058093;28;20199;-80
2023/03/14 03:24:07;;;;;;;5.27;1.90;;;;;;;10.31;100.00;96911.22;5109745;28;20199;-79
2023/03/14 03:26:36;;;;;;;5.00;1.73;;;;;;;10.17;100.00;96901.16;5108475;28;20687;-79
2023/03/14 03:29:04;;;;;;;6.03;1.87;;;;;;;10.29;100.00;96915.00;5108686;28;20634;-79
2023/03/14 03:31:33;;;;;;;3.40;1.40;;;;;;;10.19;100.00;96927.44;5112592;28;20225;-81
2023/03/14 03:34:04;;;;;;;7.33;1.80;;;;;;;10.11;100.00;96938.75;5111549;28;20218;-80
2023/03/14 03:36:36;;;;;;;8.03;1.97;;;;;;;10.03;100.00;96920.16;5113214;27;20605;-81
2023/03/14 03:39:05;;;;;;;8.07;1.40;;;;;;;10.02;100.00;96934.38;5111229;28;20223;-80
2023/03/14 03:41:34;;;;;;;6.17;1.87;;;;;;;10.10;100.00;96926.53;5114372;28;20194;-80
2023/03/14 03:44:02;;;;;;;4.70;1.60;;;;;;;10.10;100.00;96908.00;5109482;28;20195;-81
2023/03/14 03:46:31;;;;;;;4.70;1.77;;;;;;;10.00;100.00;96899.31;5069749;28;20202;-80
2023/03/14 03:49:01;;;;;;;4.80;1.80;;;;;;;9.85;100.00;96906.94;5114046;28;20191;-80
2023/03/14 03:51:30;;;;;;;3.67;1.50;;;;;;;9.81;100.00;96908.22;5108749;28;20195;-81
2023/03/14 03:54:00;;;;;;;3.63;1.70;;;;;;;9.71;100.00;96903.00;5067661;28;20185;-81
2023/03/14 03:56:34;;;;;;;6.33;1.80;;;;;;;9.79;100.00;96907.53;5069555;28;20713;-82
2023/03/14 03:59:12;;;;;;;6.57;1.67;;;;;;;9.77;100.00;96914.78;5069819;28;20196;-81
2023/03/14 04:01:40;;;;;;;4.57;1.67;;;;;;;9.65;100.00;96908.88;5064711;28;20204;-82
2023/03/14 04:04:09;;;;;;;3.90;1.60;;;;;;;9.67;100.00;96899.00;5067813;28;20238;-81
2023/03/14 04:06:38;;;;;;;5.90;1.53;;;;;;;9.68;100.00;96903.28;5064148;28;20327;-81
2023/03/14 04:09:10;;;;;;;5.63;1.90;;;;;;;9.66;100.00;96901.78;5064326;28;20206;-82
2023/03/14 04:11:38;;;;;;;5.60;1.60;;;;;;;9.72;100.00;96888.78;5076198;28;20194;-81
2023/03/14 04:14:06;;;;;;;4.60;1.67;;;;;;;9.69;100.00;96885.63;5108837;28;20197;-81
2023/03/14 04:16:36;;;;;;;6.37;2.07;;;;;;;9.67;100.00;96872.56;5111336;27;20199;-81
2023/03/14 04:19:04;;;;;;;3.77;1.63;;;;;;;9.72;100.00;96866.81;5113688;28;20191;-81
2023/03/14 04:21:33;;;;;;;3.67;1.67;;;;;;;9.75;100.00;96866.53;5106546;28;20218;-82
2023/03/14 04:24:02;;;;;;;4.80;1.50;;;;;;;9.67;100.00;96850.59;5113107;28;20198;-81
2023/03/14 04:26:33;;;;;;;3.97;1.40;;;;;;;9.61;100.00;96859.09;5116932;28;20232;-81
2023/03/14 04:29:03;;;;;;;5.03;1.80;;;;;;;9.61;100.00;96856.47;5111434;28;20269;-81
2023/03/14 04:31:32;;;;;;;4.30;1.63;;;;;;;9.54;100.00;96863.31;5112742;27;20195;-82
2023/03/14 04:34:00;;;;;;;5.13;1.90;;;;;;;9.34;100.00;96865.22;5107614;28;20197;-81
2023/03/14 04:36:28;;;;;;;4.67;1.83;;;;;;;9.46;100.00;96866.72;5093075;28;20240;-82
2023/03/14 04:38:57;;;;;;;5.93;1.87;;;;;;;9.61;100.00;96865.22;5112010;28;20276;-81
2023/03/14 04:41:25;;;;;;;6.07;1.80;;;;;;;9.72;100.00;96862.34;5114151;28;20215;-82
2023/03/14 04:43:57;;;;;;;9.30;2.03;;;;;;;9.78;100.00;96873.31;5104148;28;20202;-82
2023/03/14 04:46:25;;;;;;;4.60;1.87;;;;;;;9.77;100.00;96856.63;5104423;28;20207;-81
2023/03/14 04:48:55;;;;;;;9.00;3.70;;;;;;;9.90;100.00;96854.44;5113516;28;20283;-81
2023/03/14 04:51:27;;;;;;;6.23;2.10;;;;;;;9.84;100.00;96843.63;5108119;28;20261;-82
2023/03/14 04:53:55;;;;;;;10.47;3.37;;;;;;;9.97;100.00;96847.56;4992326;28;20415;-81
2023/03/14 04:56:24;;;;;;;7.10;2.83;;;;;;;9.96;100.00;96853.03;4988611;28;20197;-81
2023/03/14 04:58:52;;;;;;;6.93;2.50;;;;;;;10.00;100.00;96847.25;4984183;28;20274;-81
2023/03/14 05:01:23;;;;;;;5.00;2.10;;;;;;;10.03;100.00;96844.31;4982294;28;20226;-81
2023/03/14 05:03:51;;;;;;;5.20;2.37;;;;;;;10.13;100.00;96844.22;4937289;28;20203;-82
2023/03/14 05:06:19;;;;;;;6.30;2.60;;;;;;;10.26;100.00;96830.66;4984342;28;20191;-81
2023/03/14 05:08:48;;;;;;;5.00;2.27;;;;;;;10.30;100.00;96824.91;4985302;28;20194;-81
2023/03/14 05:11:16;;;;;;;4.57;1.83;;;;;;;10.25;100.00;96821.06;4997397;28;20247;-81
2023/03/14 05:13:45;;;;;;;5.33;2.00;;;;;;;10.26;100.00;96823.56;5048421;28;20204;-81
2023/03/14 05:16:14;;;;;;;5.37;2.00;;;;;;;10.26;100.00;96820.06;5054511;28;20204;-81
2023/03/14 05:18:44;;;;;;;7.60;2.20;;;;;;;10.31;100.00;96826.56;4970993;28;20192;-81
2023/03/14 05:21:12;;;;;;;4.30;1.60;;;;;;;10.33;100.00;96834.38;4969116;28;20256;-81
2023/03/14 05:23:41;;;;;;;4.67;1.93;;;;;;;10.14;100.00;96829.22;4975402;28;20195;-82
2023/03/14 05:26:09;;;;;;;7.40;1.83;;;;;;;10.32;100.00;96848.53;5043943;28;20204;-82
2023/03/14 05:28:38;;;;;;;5.90;1.63;;;;;;;10.18;100.00;96836.69;4923114;28;20197;-81
2023/03/14 05:31:09;;;;;;;5.43;1.53;;;;;;;10.34;100.00;96829.91;4915546;29;20245;-81
2023/03/14 05:33:38;;;;;;;4.20;1.53;;;;;;;10.33;100.00;96831.72;4917330;29;20197;-82
2023/03/14 05:36:11;;;;;;;4.50;1.50;;;;;;;10.40;100.00;96823.97;4929187;28;20316;-81
2023/03/14 05:38:39;;;;;;;5.40;1.93;;;;;;;10.35;100.00;96818.31;4986091;28;20242;-81
2023/03/14 05:41:08;;;;;;;5.13;1.97;;;;;;;10.35;100.00;96827.09;4992032;28;20215;-81
2023/03/14 05:43:36;;;;;;;4.50;1.90;;;;;;;10.19;100.00;96811.06;4994257;28;20207;-81
2023/03/14 05:46:05;;;;;;;6.00;1.93;;;;;;;10.19;100.00;96803.94;5017594;27;20197;-82
2023/03/14 05:48:34;;;;;;;4.53;1.67;;;;;;;10.10;100.00;96804.03;5068552;28;20227;-81
2023/03/14 05:51:02;;;;;;;5.80;1.80;;;;;;;10.12;100.00;96813.47;5069632;28;20197;-82
2023/03/14 05:53:34;;;;;;;5.10;1.67;;;;;;;10.04;100.00;96801.03;5072836;28;20184;-81
2023/03/14 05:56:02;;;;;;;3.83;1.60;;;;;;;10.10;100.00;96796.94;5069879;28;20215;-81
2023/03/14 05:58:31;;;;;;;6.10;1.80;;;;;;;9.94;100.00;96789.72;5069664;28;20188;-86
2023/03/14 06:01:02;;;;;;;7.33;1.97;;;;;;;10.01;100.00;96795.22;5061381;28;20358;-81
2023/03/14 06:03:30;;;;;;;7.07;1.67;;;;;;;9.94;100.00;96783.56;5068009;28;20733;-81
2023/03/14 06:05:59;;;;;;;5.50;1.60;;;;;;;10.03;100.00;96780.00;5067832;28;20219;-81
2023/03/14 06:08:27;;;;;;;3.00;1.30;;;;;;;10.00;100.00;96780.34;5053980;28;20234;-81
2023/03/14 06:10:59;;;;;;;3.97;1.70;;;;;;;10.10;100.00;96781.06;5010256;28;20198;-80
2023/03/14 06:13:28;;;;;;;6.63;1.90;;;;;;;10.01;100.00;96774.88;5040979;28;20195;-81
2023/03/14 06:15:56;;;;;;;4.70;1.80;;;;;;;10.09;100.00;96778.59;5061884;28;20216;-81
2023/03/14 06:18:25;;;;;;;5.03;1.67;;;;;;;10.12;100.00;96770.31;5069651;28;20193;-81
2023/03/14 06:20:56;;;;;;;4.20;1.57;;;;;;;10.10;100.00;96785.53;5061413;28;20228;-81
2023/03/14 06:23:25;;;;;;;6.27;1.50;;;;;;;10.11;100.00;96773.97;5067945;28;20193;-81
2023/03/14 06:25:57;;;;;;;4.90;1.60;;;;;;;10.13;100.00;96786.03;5069823;28;20196;-81
2023/03/14 06:28:27;;;;;;;3.63;1.27;;;;;;;10.03;100.00;96788.78;5084877;27;20182;-81
2023/03/14 06:30:57;;;;;;;5.60;1.40;;;;;;;10.17;100.00;96782.13;5130525;27;20202;-81
2023/03/14 06:33:26;;;;;;;3.80;1.40;;;;;;;9.97;100.00;96778.84;5133342;27;20209;-81
2023/03/14 06:35:55;;;;;;;3.67;1.67;;;;;;;9.94;100.00;96794.16;5124171;27;20202;-81
2023/03/14 06:38:23;;;;;;;8.53;1.13;;;;;;;10.00;100.00;96794.38;5128925;27;20205;-81
2023/03/14 06:40:52;;;;;;;4.87;1.50;;;;;;;9.91;100.00;96791.81;5126786;27;20660;-81
2023/03/14 06:43:21;;;;;;;4.97;1.33;;;;;;;9.98;100.00;96784.94;5129241;27;20186;-81
2023/03/14 06:45:51;;;;;;;5.20;1.20;;;;;;;9.85;100.00;96795.09;5131688;27;20663;-81
2023/03/14 06:48:20;;;;;;;3.90;1.37;;;;;;;9.84;100.00;96798.69;5129069;27;20212;-81
2023/03/14 06:50:49;;;;;;;2.70;1.10;;;;;;;9.80;100.00;96795.53;5128544;27;20641;-81
2023/03/14 06:53:18;;;;;;;3.70;1.43;;;;;;;9.87;100.00;96798.41;5129215;27;20191;-82
2023/03/14 06:55:46;;;;;;;5.27;1.37;;;;;;;9.85;100.00;96803.84;5132984;27;20197;-81
2023/03/14 06:58:17;;;;;;;7.03;1.57;;;;;;;9.84;100.00;96812.75;5129247;27;20202;-81
2023/03/14 07:00:45;;;;;;;3.63;1.23;;;;;;;9.89;100.00;96807.00;5128451;27;20240;-80
2023/03/14 07:03:16;;;;;;;5.30;1.33;;;;;;;9.84;100.00;96802.16;5135202;27;20217;-81
2023/03/14 07:05:45;;;;;;;6.50;1.50;;;;;;;9.77;100.00;96800.31;5083686;28;20188;-81
2023/03/14 07:08:14;;;;;;;4.20;1.30;;;;;;;9.90;100.00;96812.13;5089751;28;20195;-80
2023/03/14 07:10:45;;;;;;;4.00;0.97;;;;;;;9.94;100.00;96815.31;5085381;28;20194;-81
2023/03/14 07:13:13;;;;;;;5.63;1.63;;;;;;;9.95;100.00;96809.06;5080124;28;20238;-82
2023/03/14 07:15:42;;;;;;;2.80;0.97;;;;;;;10.01;100.00;96800.50;5083793;28;20203;-82
2023/03/14 07:18:15;;;;;;;4.13;1.20;;;;;;;10.06;100.00;96810.63;5086880;28;20200;-82
2023/03/14 07:20:46;;;;;;;6.63;1.30;;;;;;;10.04;100.00;96801.03;5085432;28;20320;-81
2023/03/14 07:23:19;;;;;;;3.83;1.10;;;;;;;10.05;100.00;96812.44;5094053;27;20331;-81
2023/03/14 07:25:47;;;;;;;25.83;16.00;;;;;;;10.07;100.00;96807.00;5132605;27;20202;-81
2023/03/14 07:28:16;;;;;;;25.77;14.37;;;;;;;10.10;100.00;96801.41;5126427;27;20248;-81
2023/03/14 07:30:47;;;;;;;20.43;10.30;;;;;;;10.10;100.00;96786.34;5127811;27;20247;-82
2023/03/14 07:33:17;;;;;;;3.17;1.60;;;;;;;10.12;100.00;96784.38;5121430;27;20195;-81
2023/03/14 07:35:45;;;;;;;2.37;1.23;;;;;;;10.17;100.00;96784.75;5120095;27;20198;-81
2023/03/14 07:38:14;;;;;;;2.90;1.13;;;;;;;10.26;100.00;96789.16;5128255;27;20203;-80
2023/03/14 07:40:42;;;;;;;3.60;1.10;;;;;;;10.22;100.00;96790.44;5128259;27;20206;-81
2023/03/14 07:43:11;;;;;;;4.00;2.30;;;;;;;10.25;100.00;96794.63;5129238;27;20218;-81
2023/03/14 07:45:39;;;;;;;4.57;2.30;;;;;;;10.37;100.00;96785.44;5134507;27;20199;-81
2023/03/14 07:48:10;;;;;;;5.87;2.83;;;;;;;10.30;100.00;96785.22;5126764;27;20210;-82
2023/03/14 07:50:40;;;;;;;3.70;1.50;;;;;;;10.34;100.00;96777.81;5133528;27;20190;-81
2023/03/14 07:53:09;;;;;;;3.53;1.83;;;;;;;10.36;100.00;96778.47;5125128;27;20206;-81
2023/03/14 07:55:37;;;;;;;5.53;2.73;;;;;;;10.25;100.00;96789.31;5130050;27;20194;-81
2023/03/14 07:58:06;;;;;;;3.83;1.67;;;;;;;10.36;100.00;96788.25;5131469;27;20198;-83
2023/03/14 08:00:34;;;;;;;3.87;0.90;;;;;;;10.35;100.00;96790.06;5125397;27;20248;-81
2023/03/14 08:03:03;;;;;;;3.40;1.00;;;;;;;10.25;100.00;96786.69;5127937;27;20211;-81
2023/03/14 08:05:31;;;;;;;2.10;1.20;;;;;;;10.26;100.00;96788.34;5127618;27;20273;-82
2023/03/14 08:08:01;;;;;;;5.23;2.60;;;;;;;10.26;100.00;96790.97;5129473;27;20194;-82
2023/03/14 08:10:32;;;;;;;12.23;6.40;;;;;;;10.31;100.00;96778.94;5126706;27;20190;-81
2023/03/14 08:13:02;;;;;;;5.30;1.90;;;;;;;10.38;100.00;96788.91;5131235;27;20195;-81
2023/03/14 08:15:31;;;;;;;3.10;1.90;;;;;;;10.31;100.00;96784.22;5128625;27;20191;-82
2023/03/14 08:18:02;;;;;;;3.67;1.70;;;;;;;10.28;100.00;96791.66;5127264;27;20194;-81
2023/03/14 08:20:31;;;;;;;4.60;1.10;;;;;;;10.13;100.00;96790.50;5097810;27;20255;-81
2023/03/14 08:23:05;;;;;;;2.70;1.20;;;;;;;10.26;100.00;96790.97;5131313;27;20218;-81
2023/03/14 08:25:36;;;;;;;1.70;1.17;;;;;;;10.23;100.00;96785.97;5128409;27;20258;-82
2023/03/14 08:28:05;;;;;;;2.60;1.10;;;;;;;10.36;100.00;96785.59;5127248;27;20209;-81
2023/03/14 08:30:34;;;;;;;2.97;1.00;;;;;;;10.45;100.00;96780.19;5122455;27;20198;-81
2023/03/14 08:33:02;;;;;;;1.23;0.70;;;;;;;10.42;100.00;96785.81;5127038;27;20221;-81
2023/03/14 08:35:32;;;;;;;2.43;1.00;;;;;;;10.50;100.00;96783.19;5120944;27;20201;-81
2023/03/14 08:38:02;;;;;;;1.67;0.70;;;;;;;10.56;100.00;96774.63;5129888;27;20328;-81
2023/03/14 08:40:32;;;;;;;1.00;0.77;;;;;;;10.63;100.00;96788.06;5130817;27;20214;-81
2023/03/14 08:43:01;;;;;;;2.23;1.00;;;;;;;10.63;100.00;96781.97;5123100;27;20305;-82
2023/03/14 08:45:29;;;;;;;2.13;0.90;;;;;;;10.65;100.00;96788.75;5130170;27;20224;-82
2023/03/14 08:48:00;;;;;;;2.10;0.80;;;;;;;10.66;100.00;96790.41;5125273;27;20209;-81
2023/03/14 08:50:28;;;;;;;1.70;0.90;;;;;;;10.64;100.00;96784.44;5127929;27;20301;-81
2023/03/14 08:52:58;;;;;;;4.10;1.87;;;;;;;10.71;100.00;96781.97;5128326;28;20190;-81
2023/03/14 08:55:31;;;;;;;1.80;0.87;;;;;;;10.83;100.00;96786.03;5127732;28;20216;-81
2023/03/14 08:58:00;;;;;;;1.90;1.00;;;;;;;10.75;100.00;96788.63;5133346;28;20194;-81
2023/03/14 09:00:29;;;;;;;2.27;0.97;;;;;;;10.94;100.00;96799.00;5127795;28;20245;-81
2023/03/14 09:02:59;;;;;;;3.20;1.03;;;;;;;10.95;100.00;96802.47;5126864;28;20222;-81
2023/03/14 09:05:27;;;;;;;1.93;1.00;;;;;;;10.89;100.00;96796.81;5125947;28;20217;-81
2023/03/14 09:07:55;;;;;;;4.43;1.67;;;;;;;10.99;100.00;96799.31;5123662;28;20224;-81
2023/03/14 09:10:26;;;;;;;2.53;1.13;;;;;;;11.14;100.00;96788.97;5127962;28;20198;-82
2023/03/14 09:13:00;;;;;;;2.80;1.50;;;;;;;11.16;100.00;96786.97;5079617;28;20205;-81
2023/03/14 09:15:28;;;;;;;2.23;1.00;;;;;;;11.25;100.00;96798.44;5126162;28;20197;-82
2023/03/14 09:17:56;;;;;;;3.77;1.30;;;;;;;11.18;100.00;96795.59;5124296;28;20236;-81
2023/03/14 09:20:25;;;;;;;2.40;1.10;;;;;;;10.95;100.00;96800.66;5125468;28;20191;-82
2023/03/14 09:22:53;;;;;;;2.30;1.00;;;;;;;10.99;100.00;96803.78;5130677;28;20216;-81
2023/03/14 09:25:22;;;;;;;2.70;1.40;;;;;;;10.81;100.00;96810.03;5121518;28;20332;-82
2023/03/14 09:27:50;;;;;;;3.03;1.43;;;;;;;10.69;100.00;96815.72;5133315;28;20303;-81
2023/03/14 09:30:20;;;;;;;4.00;1.33;;;;;;;10.65;100.00;96822.31;5087514;28;20195;-82
2023/03/14 09:32:49;;;;;;;2.20;1.10;;;;;;;10.54;100.00;96831.38;5087362;28;20200;-81
2023/03/14 09:35:17;;;;;;;3.13;1.40;;;;;;;10.48;100.00;96830.16;5088893;28;20188;-81
2023/03/14 09:37:46;;;;;;;4.07;1.47;;;;;;;10.48;100.00;96830.16;5087392;28;20651;-81
2023/03/14 09:40:17;;;;;;;2.20;1.37;;;;;;;10.39;100.00;96824.97;5079635;28;20238;-81
2023/03/14 09:42:46;;;;;;;1.63;1.20;;;;;;;10.57;100.00;96828.41;5090295;28;20216;-81
2023/03/14 09:45:22;;;;;;;3.23;1.40;;;;;;;10.65;100.00;96827.63;5035479;28;20248;-81
2023/03/14 09:47:53;;;;;;;1.90;1.37;;;;;;;10.61;100.00;96829.72;5037284;28;20203;-81
2023/03/14 09:50:31;;;;;;;4.37;1.50;;;;;;;10.66;100.00;96830.09;5065193;28;20191;-81
2023/03/14 09:53:04;;;;;;;3.37;1.53;;;;;;;10.71;100.00;96834.91;5062351;28;20204;-82
2023/03/14 09:55:33;;;;;;;2.03;1.60;;;;;;;10.69;100.00;96837.72;5070127;28;20288;-82
2023/03/14 09:58:11;;;;;;;3.33;1.47;;;;;;;10.64;100.00;96834.75;5065792;28;20268;-81
2023/03/14 10:00:39;;;;;;;2.27;1.40;;;;;;;10.74;100.00;96829.34;5037406;28;20203;-80
2023/03/14 10:03:25;;;;;;;5.47;1.70;;;;;;;10.73;100.00;96839.09;5111897;27;20221;-82
2023/03/14 10:05:55;;;;;;;2.27;1.20;;;;;;;10.65;100.00;96843.50;5156201;27;20196;-81
2023/03/14 10:08:24;;;;;;;1.10;1.00;;;;;;;10.85;100.00;96840.47;5157494;27;20197;-83
2023/03/14 10:10:54;;;;;;;1.83;1.00;;;;;;;10.86;100.00;96852.72;5154758;27;20189;-81
2023/03/14 10:13:25;;;;;;;1.87;1.10;;;;;;;10.86;100.00;96843.97;5152632;27;20193;-81
2023/03/14 10:15:56;;;;;;;2.83;1.20;;;;;;;10.99;100.00;96852.28;5147296;27;20647;-81
2023/03/14 10:18:26;;;;;;;1.73;0.90;;;;;;;11.08;100.00;96834.63;5154734;27;20186;-81
2023/03/14 10:21:07;;;;;;;0.93;0.80;;;;;;;11.12;100.00;96830.69;5150179;27;20217;-81
2023/03/14 10:23:36;;;;;;;0.67;0.63;;;;;;;11.10;100.00;96830.03;5146996;27;20217;-81
2023/03/14 10:26:09;;;;;;;3.23;0.80;;;;;;;11.05;100.00;96834.94;5146621;27;20182;-81
2023/03/14 10:28:46;;;;;;;0.90;0.50;;;;;;;11.09;100.00;96825.69;5157563;27;20186;-81
2023/03/14 10:31:15;;;;;;;2.27;0.70;;;;;;;10.94;100.00;96835.25;5150018;27;20631;-81
2023/03/14 10:33:59;;;;;;;1.67;0.80;;;;;;;10.75;100.00;96850.34;5155015;27;20219;-81
2023/03/14 10:36:31;;;;;;;1.40;0.77;;;;;;;10.67;100.00;96846.81;5150833;27;20249;-82
2023/03/14 10:39:23;;;;;;;1.20;0.80;;;;;;;10.66;100.00;96856.59;5151235;27;20259;-82
2023/03/14 10:41:54;;;;;;;2.03;0.70;;;;;;;10.56;100.00;96866.44;5152041;27;20236;-81
2023/03/14 10:44:26;;;;;;;1.47;0.90;;;;;;;10.72;100.00;96842.72;5069506;28;20264;-81
2023/03/14 10:47:01;;;;;;;2.20;0.90;;;;;;;10.86;100.00;96831.53;5062518;28;20199;-81
2023/03/14 10:49:34;;;;;;;1.40;0.90;;;;;;;10.96;100.00;96836.72;5067338;28;20619;-81
2023/03/14 10:52:14;;;;;;;2.17;1.37;;;;;;;11.02;100.00;96836.13;5063180;28;20318;-82
2023/03/14 10:54:47;;;;;;;3.13;1.70;;;;;;;11.06;100.00;96826.84;5068503;28;20192;-81
2023/03/14 10:57:16;;;;;;;2.60;1.70;;;;;;;11.07;100.00;96838.28;5068405;28;20193;-81
2023/03/14 10:59:45;;;;;;;3.17;1.90;;;;;;;11.08;100.00;96843.41;5064540;28;20196;-81
2023/03/14 11:02:29;;;;;;;1.90;1.70;;;;;;;11.06;100.00;96839.25;5096869;27;20186;-81
2023/03/14 11:05:14;;;;;;;1.70;1.60;;;;;;;11.00;100.00;96840.75;5150750;27;20217;-81
2023/03/14 11:07:43;;;;;;;3.03;1.73;;;;;;;10.85;100.00;96847.59;5149036;27;20201;-81
2023/03/14 11:10:25;;;;;;;5.70;2.30;;;;;;;10.68;100.00;96851.13;5151137;27;20205;-81
2023/03/14 11:13:14;;;;;;;4.70;2.70;;;;;;;10.81;100.00;96847.09;5153519;27;20203;-81
2023/03/14 11:15:51;;;;;;;2.70;1.80;;;;;;;10.94;100.00;96845.81;5149173;27;20198;-82
2023/03/14 11:18:44;;;;;;;3.77;1.90;;;;;;;11.06;100.00;96858.63;5145733;27;20204;-82
2023/03/14 11:21:19;;;;;;;2.30;1.70;;;;;;;10.93;100.00;96858.25;5150190;27;20235;-83
2023/03/14 11:23:59;;;;;;;2.33;1.80;;;;;;;10.96;100.00;96863.22;5070223;28;20220;-81
2023/03/14 11:26:38;;;;;;;2.53;1.90;;;;;;;11.06;100.00;96861.28;5067103;28;20195;-81
2023/03/14 11:29:20;;;;;;;3.00;2.13;;;;;;;10.92;100.00;96851.28;5067666;28;20208;-81
2023/03/14 11:31:49;;;;;;;2.40;2.10;;;;;;;10.97;100.00;96867.53;5066604;28;20204;-81
2023/03/14 11:34:24;;;;;;;3.03;2.20;;;;;;;10.84;100.00;96867.13;5067636;28;20196;-81
2023/03/14 11:37:02;;;;;;;3.53;2.30;;;;;;;10.89;100.00;96873.59;5063894;28;20229;-81
2023/03/14 11:39:39;;;;;;;4.50;2.33;;;;;;;10.94;100.00;96880.25;4986962;28;20279;-81
2023/03/14 11:42:14;;;;;;;2.90;2.10;;;;;;;10.66;100.00;96876.94;5026879;28;20258;-81